createdAt,value
2018-09-25T00:01:34.707Z,100335.20
2018-09-25T00:04:07.971Z,100359.01
2018-09-25T00:06:41.339Z,100346.39
2018-09-25T00:09:15.156Z,100336.13
2018-09-25T00:11:48.588Z,100352.41
2018-09-25T00:14:21.763Z,100358.84
2018-09-25T00:16:54.948Z,100358.17
2018-09-25T00:19:28.254Z,100362.40
2018-09-25T00:22:01.372Z,100355.36
2018-09-25T00:24:34.591Z,100354.88
2018-09-25T00:27:07.748Z,100352.18
2018-09-25T00:29:40.958Z,100366.95
2018-09-25T00:32:14.097Z,100367.84
2018-09-25T00:34:47.369Z,100367.30
2018-09-25T00:37:20.552Z,100379.48
2018-09-25T00:39:53.696Z,100376.94
2018-09-25T00:42:26.826Z,100381.27
2018-09-25T00:45:00.012Z,100387.81
2018-09-25T00:47:33.189Z,100386.31
2018-09-25T00:50:06.447Z,100389.67
2018-09-25T00:52:39.815Z,100389.20
2018-09-25T00:55:13.063Z,100386.98
2018-09-25T00:57:46.298Z,100381.53
2018-09-25T01:00:19.443Z,100386.86
2018-09-25T01:02:52.611Z,100383.64
2018-09-25T01:05:25.802Z,100383.27
2018-09-25T01:07:58.877Z,100404.06
2018-09-25T01:10:32.130Z,100399.50
2018-09-25T01:13:05.452Z,100405.03
2018-09-25T01:15:38.663Z,100407.49
2018-09-25T01:18:11.894Z,100406.64
2018-09-25T01:20:45.152Z,100403.91
2018-09-25T01:23:18.358Z,100397.55
2018-09-25T01:25:51.525Z,100404.67
2018-09-25T01:28:24.707Z,100417.09
2018-09-25T01:30:57.883Z,100412.50
2018-09-25T01:33:31.125Z,100414.42
2018-09-25T01:36:04.347Z,100415.58
2018-09-25T01:38:37.532Z,100420.23
2018-09-25T01:41:10.771Z,100415.02
2018-09-25T01:43:44.031Z,100422.69
2018-09-25T01:46:17.315Z,100404.81
2018-09-25T01:48:50.478Z,100424.82
2018-09-25T01:51:23.716Z,100432.07
2018-09-25T01:53:56.890Z,100436.04
2018-09-25T01:56:30.055Z,100430.95
2018-09-25T01:59:03.170Z,100426.66
2018-09-25T02:01:36.409Z,100439.41
2018-09-25T02:04:09.645Z,100431.59
2018-09-25T02:06:42.835Z,100433.37
2018-09-25T02:09:16.115Z,100436.79
2018-09-25T02:11:49.407Z,100444.33
2018-09-25T02:14:22.697Z,100454.33
2018-09-25T02:16:55.911Z,100443.88
2018-09-25T02:19:29.614Z,100454.41
2018-09-25T02:22:02.927Z,100454.87
2018-09-25T02:24:36.027Z,100453.53
2018-09-25T02:27:09.379Z,100454.34
2018-09-25T02:29:42.586Z,100451.63
2018-09-25T02:32:15.706Z,100443.27
2018-09-25T02:34:49.003Z,100439.28
2018-09-25T02:37:22.255Z,100457.92
2018-09-25T02:39:55.387Z,100465.73
2018-09-25T02:42:28.623Z,100469.07
2018-09-25T02:45:01.828Z,100468.29
2018-09-25T02:47:35.079Z,100471.89
2018-09-25T02:50:08.403Z,100470.50
2018-09-25T02:52:41.619Z,100477.89
2018-09-25T02:55:14.736Z,100487.97
2018-09-25T02:57:47.972Z,100487.22
2018-09-25T03:00:21.348Z,100484.34
2018-09-25T03:02:54.661Z,100484.03
2018-09-25T03:05:27.827Z,100488.04
2018-09-25T03:08:01.179Z,100499.34
2018-09-25T03:10:34.384Z,100489.42
2018-09-25T03:13:07.650Z,100490.09
2018-09-25T03:15:40.868Z,100496.91
2018-09-25T03:18:14.211Z,100493.52
2018-09-25T03:20:47.467Z,100489.73
2018-09-25T03:23:20.807Z,100499.19
2018-09-25T03:25:53.947Z,100497.42
2018-09-25T03:28:27.452Z,100507.90
2018-09-25T03:31:00.578Z,100507.73
2018-09-25T03:33:33.826Z,100510.59
2018-09-25T03:36:06.990Z,100512.92
2018-09-25T03:38:40.177Z,100517.34
2018-09-25T03:41:13.428Z,100521.50
2018-09-25T03:43:46.591Z,100527.64
2018-09-25T03:46:19.718Z,100529.86
2018-09-25T03:48:53.007Z,100547.10
2018-09-25T03:51:26.188Z,100550.88
2018-09-25T03:53:59.555Z,100563.64
2018-09-25T03:56:32.861Z,100567.77
2018-09-25T03:59:06.172Z,100568.66
2018-09-25T04:01:39.469Z,100575.30
2018-09-25T04:04:12.603Z,100578.45
2018-09-25T04:06:45.798Z,100578.31
2018-09-25T04:09:25.972Z,100582.78
2018-09-25T04:11:59.215Z,100581.89
2018-09-25T04:14:32.547Z,100591.53
2018-09-25T04:17:05.736Z,100596.78
2018-09-25T04:19:38.895Z,100592.31
2018-09-25T04:22:12.147Z,100595.73
2018-09-25T04:24:45.376Z,100593.72
2018-09-25T04:27:18.632Z,100591.88
2018-09-25T04:29:51.867Z,100590.05
2018-09-25T04:32:25.158Z,100600.09
2018-09-25T04:34:58.375Z,100597.86
2018-09-25T04:37:31.514Z,100595.23
2018-09-25T04:40:04.764Z,100601.69
2018-09-25T04:42:37.919Z,100603.69
2018-09-25T04:45:11.535Z,100591.89
2018-09-25T04:47:44.714Z,100596.13
2018-09-25T04:50:17.954Z,100592.67
2018-09-25T04:52:51.211Z,100601.50
2018-09-25T04:55:24.423Z,100612.08
2018-09-25T04:57:57.608Z,100604.33
2018-09-25T05:00:30.864Z,100596.47
2018-09-25T05:03:04.090Z,100610.82
2018-09-25T05:05:37.259Z,100609.92
2018-09-25T05:08:10.394Z,100615.57
2018-09-25T05:10:43.622Z,100619.13
2018-09-25T05:13:16.775Z,100609.23
2018-09-25T05:15:50.064Z,100609.31
2018-09-25T05:18:23.343Z,100609.72
2018-09-25T05:20:56.583Z,100606.41
2018-09-25T05:23:29.796Z,100611.00
2018-09-25T05:26:03.000Z,100611.05
2018-09-25T05:28:36.187Z,100613.06
2018-09-25T05:31:09.455Z,100608.52
2018-09-25T05:33:42.614Z,100611.81
2018-09-25T05:36:15.828Z,100616.27
2018-09-25T05:38:49.172Z,100617.50
2018-09-25T05:41:22.402Z,100631.89
2018-09-25T05:43:55.593Z,100642.73
2018-09-25T05:46:28.838Z,100634.34
2018-09-25T05:49:02.207Z,100640.59
2018-09-25T05:51:35.451Z,100634.33
2018-09-25T05:54:08.580Z,100637.04
2018-09-25T05:56:41.771Z,100640.77
2018-09-25T05:59:14.982Z,100649.88
2018-09-25T06:01:48.333Z,100638.88
2018-09-25T06:04:21.599Z,100645.08
2018-09-25T06:06:54.848Z,100663.50
2018-09-25T06:09:28.112Z,100667.43
2018-09-25T06:12:01.504Z,100656.19
2018-09-25T06:14:34.682Z,100659.13
2018-09-25T06:17:07.967Z,100652.00
2018-09-25T06:19:41.310Z,100658.02
2018-09-25T06:22:14.648Z,100661.87
2018-09-25T06:24:47.871Z,100657.52
2018-09-25T06:27:21.189Z,100658.05
2018-09-25T06:29:54.580Z,100668.06
2018-09-25T06:32:27.933Z,100668.63
2018-09-25T06:35:01.234Z,100661.09
2018-09-25T06:37:34.370Z,100661.48
2018-09-25T06:40:07.608Z,100670.80
2018-09-25T06:42:40.790Z,100665.81
2018-09-25T06:45:13.947Z,100657.18
2018-09-25T06:47:47.316Z,100656.36
2018-09-25T06:50:20.446Z,100653.55
2018-09-25T06:52:53.703Z,100653.70
2018-09-25T06:55:27.010Z,100655.83
2018-09-25T06:58:00.202Z,100659.55
2018-09-25T07:00:33.345Z,100658.53
2018-09-25T07:03:06.520Z,100655.73
2018-09-25T07:05:39.701Z,100650.13
2018-09-25T07:08:13.219Z,100642.66
2018-09-25T07:10:46.409Z,100645.77
2018-09-25T07:13:19.755Z,100648.30
2018-09-25T07:15:53.010Z,100656.48
2018-09-25T07:18:26.436Z,100652.08
2018-09-25T07:20:59.708Z,100651.18
2018-09-25T07:23:32.895Z,100638.87
2018-09-25T07:26:06.071Z,100645.31
2018-09-25T07:28:39.263Z,100642.08
2018-09-25T07:31:12.455Z,100645.03
2018-09-25T07:33:45.599Z,100633.94
2018-09-25T07:36:18.767Z,100642.48
2018-09-25T07:38:51.893Z,100629.11
2018-09-25T07:41:25.200Z,100652.32
2018-09-25T07:43:58.513Z,100664.45
2018-09-25T07:46:31.718Z,100657.77
2018-09-25T07:49:04.980Z,100649.30
2018-09-25T07:51:38.128Z,100661.78
2018-09-25T07:54:11.424Z,100661.88
2018-09-25T07:56:44.833Z,100660.59
2018-09-25T07:59:18.103Z,100658.67
2018-09-25T08:01:51.324Z,100663.98
2018-09-25T08:04:24.514Z,100658.77
2018-09-25T08:06:57.820Z,100663.56
2018-09-25T08:09:31.051Z,100663.90
2018-09-25T08:12:04.355Z,100673.73
2018-09-25T08:14:37.608Z,100668.13
2018-09-25T08:17:10.991Z,100661.66
2018-09-25T08:19:44.262Z,100662.61
2018-09-25T08:22:17.522Z,100671.34
2018-09-25T08:24:50.967Z,100661.11
2018-09-25T08:27:24.154Z,100651.60
2018-09-25T08:29:57.324Z,100662.55
2018-09-25T08:32:30.483Z,100650.61
2018-09-25T08:35:03.860Z,100664.20
2018-09-25T08:37:37.063Z,100654.69
2018-09-25T08:40:10.574Z,100661.80
2018-09-25T08:42:43.795Z,100667.65
2018-09-25T08:45:16.992Z,100659.28
2018-09-25T08:47:51.179Z,100651.05
2018-09-25T08:50:24.409Z,100659.27
2018-09-25T08:52:57.714Z,100658.30
2018-09-25T08:55:30.983Z,100661.52
2018-09-25T08:58:04.291Z,100655.17
2018-09-25T09:00:37.466Z,100662.81
2018-09-25T09:03:10.762Z,100654.09
2018-09-25T09:05:43.915Z,100644.23
2018-09-25T09:08:17.039Z,100657.17
2018-09-25T09:10:50.359Z,100651.34
2018-09-25T09:13:23.523Z,100652.72
2018-09-25T09:15:56.785Z,100665.19
2018-09-25T09:18:29.935Z,100661.72
2018-09-25T09:21:03.204Z,100661.66
2018-09-25T09:23:36.435Z,100659.66
2018-09-25T09:26:09.625Z,100667.59
2018-09-25T09:28:42.790Z,100665.89
2018-09-25T09:31:15.947Z,100660.44
2018-09-25T09:33:49.097Z,100681.03
2018-09-25T09:36:22.280Z,100681.23
2018-09-25T09:38:55.501Z,100669.02
2018-09-25T09:41:28.892Z,100669.95
2018-09-25T09:44:01.958Z,100674.16
2018-09-25T09:46:35.343Z,100669.96
2018-09-25T09:49:08.538Z,100673.74
2018-09-25T09:51:41.752Z,100683.30
2018-09-25T09:54:14.916Z,100684.81
2018-09-25T09:56:48.099Z,100680.47
2018-09-25T09:59:21.370Z,100681.14
2018-09-25T10:01:54.523Z,100684.94
2018-09-25T10:04:27.756Z,100676.09
2018-09-25T10:07:01.007Z,100679.53
2018-09-25T10:09:34.430Z,100666.22
2018-09-25T10:12:07.646Z,100665.75
2018-09-25T10:14:40.825Z,100682.44
2018-09-25T10:17:14.006Z,100672.42
2018-09-25T10:19:47.205Z,100657.78
2018-09-25T10:22:20.444Z,100655.56
2018-09-25T10:24:53.648Z,100664.31
2018-09-25T10:27:26.963Z,100662.42
2018-09-25T10:30:00.145Z,100659.73
2018-09-25T10:32:33.602Z,100663.34
2018-09-25T10:35:06.727Z,100661.17
2018-09-25T10:37:40.045Z,100659.58
2018-09-25T10:40:13.450Z,100671.22
2018-09-25T10:42:46.677Z,100656.94
2018-09-25T10:45:19.852Z,100656.86
2018-09-25T10:47:53.312Z,100665.05
2018-09-25T10:50:26.637Z,100665.95
2018-09-25T10:52:59.873Z,100655.17
2018-09-25T10:55:33.157Z,100656.06
2018-09-25T10:58:06.608Z,100650.00
2018-09-25T11:00:39.928Z,100645.94
2018-09-25T11:03:13.249Z,100671.39
2018-09-25T11:05:46.637Z,100651.16
2018-09-25T11:08:19.840Z,100647.52
2018-09-25T11:10:53.014Z,100640.80
2018-09-25T11:13:26.261Z,100643.72
2018-09-25T11:15:59.460Z,100661.11
2018-09-25T11:18:32.695Z,100653.42
2018-09-25T11:21:05.927Z,100651.91
2018-09-25T11:23:39.158Z,100659.20
2018-09-25T11:26:12.330Z,100655.25
2018-09-25T11:28:45.650Z,100646.14
2018-09-25T11:31:18.868Z,100645.60
2018-09-25T11:33:52.375Z,100643.27
2018-09-25T11:36:25.734Z,100626.95
2018-09-25T11:38:58.899Z,100643.45
2018-09-25T11:41:31.978Z,100640.00
2018-09-25T11:44:05.224Z,100631.77
2018-09-25T11:46:38.503Z,100623.87
2018-09-25T11:49:11.735Z,100628.00
2018-09-25T11:51:45.077Z,100625.96
2018-09-25T11:54:18.305Z,100617.48
2018-09-25T11:56:51.583Z,100611.34
2018-09-25T11:59:24.788Z,100624.80
2018-09-25T12:01:57.964Z,100633.86
2018-09-25T12:04:31.253Z,100629.34
2018-09-25T12:07:05.544Z,100616.12
2018-09-25T12:09:38.707Z,100614.84
2018-09-25T12:12:12.110Z,100623.00
2018-09-25T12:14:45.307Z,100625.46
2018-09-25T12:17:18.507Z,100615.41
2018-09-25T12:19:51.783Z,100615.93
2018-09-25T12:22:24.929Z,100620.80
2018-09-25T12:24:58.127Z,100610.06
2018-09-25T12:27:31.368Z,100606.70
2018-09-25T12:30:04.608Z,100599.20
2018-09-25T12:32:37.843Z,100601.86
2018-09-25T12:35:11.241Z,100603.77
2018-09-25T12:37:44.679Z,100597.46
2018-09-25T12:40:18.028Z,100599.66
2018-09-25T12:42:51.186Z,100593.13
2018-09-25T12:45:24.385Z,100599.70
2018-09-25T12:47:57.635Z,100602.71
2018-09-25T12:50:30.863Z,100600.71
2018-09-25T12:53:04.053Z,100595.97
2018-09-25T12:55:37.423Z,100586.31
2018-09-25T12:58:10.657Z,100592.97
2018-09-25T13:00:43.950Z,100596.13
2018-09-25T13:03:17.233Z,100595.72
2018-09-25T13:05:50.505Z,100590.95
2018-09-25T13:08:23.840Z,100599.75
2018-09-25T13:10:57.093Z,100603.97
2018-09-25T13:13:30.340Z,100612.03
2018-09-25T13:16:03.631Z,100606.27
2018-09-25T13:18:36.809Z,100606.16
2018-09-25T13:21:10.269Z,100603.98
2018-09-25T13:23:43.543Z,100607.23
2018-09-25T13:26:16.970Z,100583.95
2018-09-25T13:28:50.273Z,100596.25
2018-09-25T13:31:23.470Z,100592.67
2018-09-25T13:33:56.834Z,100586.03
2018-09-25T13:36:30.114Z,100608.49
2018-09-25T13:39:03.424Z,100596.27
2018-09-25T13:41:36.625Z,100595.75
2018-09-25T13:44:09.873Z,100603.29
2018-09-25T13:46:43.314Z,100602.14
2018-09-25T13:49:16.809Z,100607.09
2018-09-25T13:51:49.922Z,100600.43
2018-09-25T13:54:23.378Z,100605.59
2018-09-25T13:56:56.654Z,100600.16
2018-09-25T13:59:30.033Z,100595.33
2018-09-25T14:02:03.199Z,100599.42
2018-09-25T14:04:36.336Z,100597.69
2018-09-25T14:07:09.486Z,100598.55
2018-09-25T14:09:42.866Z,100590.58
2018-09-25T14:12:16.244Z,100595.02
2018-09-25T14:14:49.362Z,100599.19
2018-09-25T14:17:22.724Z,100599.52
2018-09-25T14:19:56.044Z,100598.08
2018-09-25T14:22:29.531Z,100593.19
2018-09-25T14:25:02.657Z,100596.80
2018-09-25T14:27:35.956Z,100593.47
2018-09-25T14:30:09.295Z,100603.76
2018-09-25T14:32:42.473Z,100596.23
2018-09-25T14:35:15.615Z,100603.59
2018-09-25T14:37:49.027Z,100598.10
2018-09-25T14:40:22.212Z,100608.98
2018-09-25T14:42:55.374Z,100609.80
2018-09-25T14:45:28.793Z,100622.81
2018-09-25T14:48:02.062Z,100622.34
2018-09-25T14:50:35.205Z,100617.41
2018-09-25T14:53:08.438Z,100629.98
2018-09-25T14:55:41.552Z,100627.72
2018-09-25T14:58:14.855Z,100635.00
2018-09-25T15:00:48.253Z,100635.65
2018-09-25T15:03:21.615Z,100643.38
2018-09-25T15:05:54.900Z,100645.14
2018-09-25T15:08:28.106Z,100645.89
2018-09-25T15:11:01.361Z,100649.63
2018-09-25T15:13:34.637Z,100655.86
2018-09-25T15:16:08.017Z,100658.04
2018-09-25T15:18:41.320Z,100652.42
2018-09-25T15:21:14.669Z,100654.03
2018-09-25T15:23:47.891Z,100656.12
2018-09-25T15:26:21.244Z,100657.25
2018-09-25T15:28:54.411Z,100677.47
2018-09-25T15:31:27.823Z,100665.09
2018-09-25T15:34:01.006Z,100668.05
2018-09-25T15:36:34.307Z,100672.11
2018-09-25T15:39:07.826Z,100676.05
2018-09-25T15:41:41.240Z,100678.22
2018-09-25T15:44:14.462Z,100678.67
2018-09-25T15:46:47.647Z,100686.16
2018-09-25T15:49:20.920Z,100689.20
2018-09-25T15:51:54.141Z,100693.50
2018-09-25T15:54:27.418Z,100695.50
2018-09-25T15:57:00.731Z,100700.22
2018-09-25T15:59:33.931Z,100700.84
2018-09-25T16:02:07.107Z,100701.68
2018-09-25T16:04:40.330Z,100706.00
2018-09-25T16:07:13.547Z,100704.12
2018-09-25T16:09:46.798Z,100704.02
2018-09-25T16:12:20.261Z,100709.13
2018-09-25T16:14:53.572Z,100711.56
2018-09-25T16:17:26.882Z,100715.13
2018-09-25T16:20:00.362Z,100719.84
2018-09-25T16:22:33.695Z,100726.55
2018-09-25T16:25:06.918Z,100728.75
2018-09-25T16:27:40.065Z,100727.66
2018-09-25T16:30:13.423Z,100735.84
2018-09-25T16:32:46.720Z,100735.34
2018-09-25T16:35:19.936Z,100739.09
2018-09-25T16:37:53.240Z,100739.66
2018-09-25T16:40:26.506Z,100741.82
2018-09-25T16:42:59.761Z,100753.53
2018-09-25T16:45:32.957Z,100752.59
2018-09-25T16:48:06.227Z,100755.91
2018-09-25T16:50:39.445Z,100762.44
2018-09-25T16:53:12.706Z,100762.33
2018-09-25T16:55:46.067Z,100767.25
2018-09-25T16:58:19.290Z,100781.08
2018-09-25T17:00:52.636Z,100776.48
2018-09-25T17:03:25.988Z,100787.88
2018-09-25T17:05:59.263Z,100786.73
2018-09-25T17:08:32.426Z,100794.27
2018-09-25T17:11:05.626Z,100792.66
2018-09-25T17:13:39.119Z,100795.59
2018-09-25T17:16:12.401Z,100795.92
2018-09-25T17:18:45.571Z,100805.67
2018-09-25T17:21:18.923Z,100798.68
2018-09-25T17:23:52.092Z,100808.82
2018-09-25T17:26:25.362Z,100809.45
2018-09-25T17:28:58.472Z,100809.95
2018-09-25T17:31:31.669Z,100817.95
2018-09-25T17:34:04.971Z,100819.38
2018-09-25T17:36:38.325Z,100823.47
2018-09-25T17:39:13.540Z,100827.19
2018-09-25T17:41:47.447Z,100828.14
2018-09-25T17:44:20.641Z,100831.00
2018-09-25T17:46:53.830Z,100830.88
2018-09-25T17:49:27.038Z,100840.35
2018-09-25T17:52:00.215Z,100837.04
2018-09-25T17:54:33.704Z,100837.19
2018-09-25T17:57:07.760Z,100841.38
2018-09-25T17:59:41.000Z,100844.83
2018-09-25T18:02:14.304Z,100859.95
2018-09-25T18:04:47.538Z,100864.16
2018-09-25T18:07:20.963Z,100868.20
2018-09-25T18:09:54.194Z,100865.36
2018-09-25T18:12:27.524Z,100873.15
2018-09-25T18:15:00.718Z,100873.65
2018-09-25T18:17:34.026Z,100876.81
2018-09-25T18:20:07.123Z,100875.82
2018-09-25T18:22:40.513Z,100877.57
2018-09-25T18:25:13.731Z,100881.46
2018-09-25T18:27:46.957Z,100880.86
2018-09-25T18:30:20.134Z,100880.87
2018-09-25T18:32:53.559Z,100886.38
2018-09-25T18:35:26.848Z,100889.36
2018-09-25T18:38:00.000Z,100889.22
2018-09-25T18:40:33.048Z,100890.55
2018-09-25T18:43:06.455Z,100898.36
2018-09-25T18:45:39.643Z,100900.09
2018-09-25T18:48:12.973Z,100900.06
2018-09-25T18:50:46.324Z,100901.23
2018-09-25T18:53:19.577Z,100904.51
2018-09-25T18:55:52.795Z,100908.81
2018-09-25T18:58:26.008Z,100910.73
2018-09-25T19:00:59.183Z,100914.61
2018-09-25T19:03:32.579Z,100912.12
2018-09-25T19:06:05.744Z,100915.59
2018-09-25T19:08:38.956Z,100921.97
2018-09-25T19:11:12.395Z,100920.83
2018-09-25T19:13:45.735Z,100922.91
2018-09-25T19:16:18.976Z,100925.39
2018-09-25T19:18:52.137Z,100929.69
2018-09-25T19:21:25.450Z,100939.23
2018-09-25T19:23:58.743Z,100938.92
2018-09-25T19:26:31.951Z,100940.65
2018-09-25T19:29:05.203Z,100947.37
2018-09-25T19:31:38.329Z,100939.97
2018-09-25T19:34:11.512Z,100945.97
2018-09-25T19:36:44.638Z,100953.41
2018-09-25T19:39:17.807Z,100954.20
2018-09-25T19:41:50.978Z,100960.08
2018-09-25T19:44:24.215Z,100963.80
2018-09-25T19:46:57.596Z,100977.23
2018-09-25T19:49:30.927Z,100985.80
2018-09-25T19:52:04.176Z,100988.85
2018-09-25T19:54:37.472Z,100990.51
2018-09-25T19:57:10.880Z,100995.30
2018-09-25T19:59:44.099Z,101006.41
2018-09-25T20:02:17.215Z,101012.19
2018-09-25T20:04:50.402Z,101021.84
2018-09-25T20:07:23.669Z,101023.52
2018-09-25T20:09:57.031Z,101032.11
2018-09-25T20:12:30.279Z,101038.61
2018-09-25T20:15:03.714Z,101048.28
2018-09-25T20:17:36.807Z,101050.50
2018-09-25T20:20:10.319Z,101051.66
2018-09-25T20:22:43.545Z,101066.39
2018-09-25T20:25:16.824Z,101070.77
2018-09-25T20:27:50.047Z,101081.37
2018-09-25T20:30:23.338Z,101080.69
2018-09-25T20:32:56.704Z,101080.83
2018-09-25T20:35:30.028Z,101087.34
2018-09-25T20:38:03.279Z,101099.67
2018-09-25T20:40:36.508Z,101105.48
2018-09-25T20:43:09.776Z,101114.17
2018-09-25T20:45:43.040Z,101106.81
2018-09-25T20:48:16.322Z,101109.59
2018-09-25T20:50:49.611Z,101115.53
2018-09-25T20:53:22.727Z,101116.05
2018-09-25T20:55:56.038Z,101111.34
2018-09-25T20:58:29.260Z,101121.06
2018-09-25T21:01:02.459Z,101123.14
2018-09-25T21:03:35.776Z,101124.31
2018-09-25T21:06:09.039Z,101135.19
2018-09-25T21:08:42.237Z,101133.81
2018-09-25T21:11:15.463Z,101140.07
2018-09-25T21:13:48.854Z,101143.28
2018-09-25T21:16:22.251Z,101136.89
2018-09-25T21:18:55.474Z,101137.21
2018-09-25T21:21:28.881Z,101135.84
2018-09-25T21:24:02.138Z,101144.30
2018-09-25T21:26:35.382Z,101140.90
2018-09-25T21:29:08.724Z,101142.42
2018-09-25T21:31:42.191Z,101141.73
2018-09-25T21:34:15.446Z,101142.91
2018-09-25T21:36:48.674Z,101146.36
2018-09-25T21:39:21.908Z,101144.64
2018-09-25T21:41:55.114Z,101146.13
2018-09-25T21:44:28.352Z,101154.44
2018-09-25T21:47:01.556Z,101148.83
2018-09-25T21:49:34.848Z,101147.68
2018-09-25T21:52:08.060Z,101151.34
2018-09-25T21:54:41.379Z,101147.81
2018-09-25T21:57:14.757Z,101155.47
2018-09-25T21:59:47.787Z,101154.98
2018-09-25T22:02:21.008Z,101159.86
2018-09-25T22:04:54.243Z,101154.12
2018-09-25T22:07:27.443Z,101154.45
2018-09-25T22:10:00.685Z,101158.34
2018-09-25T22:12:34.016Z,101149.40
2018-09-25T22:15:07.227Z,101155.14
2018-09-25T22:17:40.427Z,101161.41
2018-09-25T22:20:13.724Z,101162.90
2018-09-25T22:22:46.964Z,101166.45
2018-09-25T22:25:20.484Z,101163.00
2018-09-25T22:27:53.956Z,101159.83
2018-09-25T22:30:27.232Z,101165.02
2018-09-25T22:33:00.448Z,101169.56
2018-09-25T22:35:33.825Z,101173.28
2018-09-25T22:38:07.087Z,101173.57
2018-09-25T22:40:40.539Z,101178.62
2018-09-25T22:43:13.736Z,101184.97
2018-09-25T22:45:47.243Z,101183.84
2018-09-25T22:48:20.599Z,101183.31
2018-09-25T22:50:53.783Z,101185.38
2018-09-25T22:53:26.993Z,101183.14
2018-09-25T22:56:00.410Z,101189.70
2018-09-25T22:58:33.838Z,101199.64
2018-09-25T23:01:07.035Z,101196.17
2018-09-25T23:03:40.369Z,101191.03
2018-09-25T23:06:13.591Z,101193.95
2018-09-25T23:08:46.899Z,101199.78
2018-09-25T23:11:20.303Z,101211.45
2018-09-25T23:13:53.723Z,101217.35
2018-09-25T23:16:27.202Z,101216.00
2018-09-25T23:19:00.654Z,101225.77
2018-09-25T23:21:33.965Z,101227.48
2018-09-25T23:24:07.414Z,101228.06
2018-09-25T23:26:40.884Z,101225.28
2018-09-25T23:29:14.121Z,101232.88
2018-09-25T23:31:47.325Z,101228.09
2018-09-25T23:34:20.750Z,101229.38
2018-09-25T23:36:54.167Z,101232.05
2018-09-25T23:39:27.326Z,101234.64
2018-09-25T23:42:33.213Z,101233.31
2018-09-25T23:45:06.610Z,101236.97
2018-09-25T23:47:39.810Z,101241.25
2018-09-25T23:50:13.123Z,101240.34
2018-09-25T23:52:54.569Z,101239.20
2018-09-25T23:55:29.865Z,101244.34
2018-09-25T23:58:00.370Z,101254.70
